createdAt,value
2022-10-19T00:00:29.599Z,76.47312
2022-10-19T00:05:31.214Z,78.20479
2022-10-19T00:10:32.837Z,80.28319
2022-10-19T00:15:34.492Z,76.75862
2022-10-19T00:20:36.105Z,76.75862
2022-10-19T00:25:37.718Z,77.62256
2022-10-19T00:30:39.359Z,75.34328
2022-10-19T00:35:40.990Z,76.75862
2022-10-19T00:40:42.589Z,75.62393
2022-10-19T00:45:44.186Z,75.34328
2022-10-19T00:50:45.803Z,79.98234
2022-10-19T00:55:47.393Z,90.66667
2022-10-19T01:00:49.020Z,84
2022-10-19T01:05:50.698Z,77.91304
2022-10-19T01:10:52.324Z,77.04536
2022-10-19T01:20:55.589Z,86.26328
2022-10-19T01:25:57.171Z,82.73874
2022-10-19T01:30:58.797Z,88.2623
2022-10-19T01:36:00.405Z,116.06704
2022-10-19T01:41:01.988Z,116.54902
2022-10-19T01:46:03.623Z,100.743
2022-10-19T01:51:05.197Z,94.2439
2022-10-19T01:56:06.792Z,98.38596
2022-10-19T02:01:08.484Z,98.38596
2022-10-19T02:06:10.184Z,97.23383
2022-10-19T02:11:11.813Z,87.25581
2022-10-19T02:16:13.393Z,82.73874
2022-10-19T02:21:15.024Z,83.36652
2022-10-19T02:26:16.644Z,78.79212
2022-10-19T02:31:18.250Z,82.73874
2022-10-19T02:36:19.866Z,83.36652
2022-10-19T02:41:21.505Z,81.5
2022-10-19T02:46:23.112Z,78.49782
2022-10-19T02:51:24.704Z,77.62256
2022-10-19T02:56:26.334Z,77.33333
2022-10-19T03:01:27.948Z,77.62256
2022-10-19T03:06:29.547Z,81.19376
2022-10-19T03:11:31.141Z,86.59259
2022-10-19T03:16:32.741Z,81.19376
2022-10-19T03:21:34.466Z,85.2844
2022-10-19T03:26:36.061Z,96.47525
2022-10-19T03:31:37.685Z,92.79227
2022-10-19T03:36:39.540Z,84.9611
2022-10-19T03:41:41.115Z,80.28319
2022-10-19T03:46:43.035Z,78.49782
2022-10-19T03:51:44.654Z,78.20479
2022-10-19T03:56:46.230Z,77.91304
2022-10-19T04:01:48.005Z,77.91304
2022-10-19T04:06:49.624Z,77.33333
2022-10-19T04:11:51.237Z,75.90578
2022-10-19T04:16:52.851Z,80.28319
2022-10-19T04:21:54.514Z,77.91304
2022-10-19T04:26:56.128Z,76.75862
2022-10-19T04:31:57.928Z,76.75862
2022-10-19T04:36:59.695Z,78.20479
2022-10-19T04:42:01.358Z,79.08772
2022-10-19T04:47:02.995Z,82.11659
2022-10-19T04:52:04.661Z,98
2022-10-19T04:57:06.325Z,89.97156
2022-10-19T05:02:07.919Z,81.5
2022-10-19T05:07:09.525Z,79.08772
2022-10-19T05:12:11.300Z,79.38462
2022-10-19T05:17:13.059Z,79.08772
2022-10-19T05:22:14.700Z,79.98234
2022-10-19T05:27:16.345Z,80.58537
2022-10-19T05:32:17.953Z,79.08772
2022-10-19T05:37:19.653Z,78.79212
2022-10-19T05:42:21.327Z,80.58537
2022-10-19T05:47:26.175Z,82.42697
2022-10-19T05:52:31.085Z,87.25581
2022-10-19T05:57:33.041Z,88.60094
2022-10-19T06:02:34.914Z,86.26328
2022-10-19T06:07:36.983Z,86.59259
2022-10-19T06:12:38.713Z,86.26328
2022-10-19T06:17:40.333Z,84.31891
2022-10-19T06:22:41.958Z,86.26328
2022-10-19T06:27:43.594Z,86.26328
2022-10-19T06:32:45.294Z,86.59259
2022-10-19T06:37:46.952Z,89.97156
2022-10-19T06:42:48.517Z,102.76289
2022-10-19T06:47:50.106Z,106.53298
2022-10-19T06:52:51.747Z,114.16575
2022-10-19T06:57:53.265Z,108.70588
2022-10-19T07:02:54.927Z,89.97156
2022-10-19T07:07:56.655Z,85.6092
2022-10-19T07:12:58.379Z,92.79227
2022-10-19T07:18:00.083Z,93.15254
2022-10-19T07:23:01.722Z,96.8536
2022-10-19T07:28:03.344Z,102.76289
2022-10-19T07:33:04.949Z,104.41667
2022-10-19T07:38:06.579Z,107.82979
2022-10-19T07:43:08.192Z,98
2022-10-19T07:48:09.805Z,100.743
2022-10-19T07:53:11.400Z,102.35476
2022-10-19T07:58:13.011Z,101.14286
2022-10-19T08:04:31.661Z,99.55556
2022-10-19T08:09:53.292Z,99.16373
2022-10-19T08:14:55.668Z,96.09877
2022-10-19T08:19:18.409Z,99.94937
2022-10-19T08:24:20.037Z,123.06977
2022-10-19T08:29:21.636Z,150.71141
2022-10-19T08:34:23.240Z,140.17834
2022-10-19T08:39:24.862Z,140.17834
2022-10-19T08:44:26.500Z,148.65116
2022-10-19T08:49:28.090Z,149.33333
2022-10-19T08:54:29.948Z,136.5
2022-10-19T08:59:31.590Z,130.66667
2022-10-19T09:04:33.210Z,128.43114
2022-10-19T09:09:34.903Z,126.78932
2022-10-19T09:14:36.535Z,131.23404
2022-10-19T09:19:38.120Z,139.55556
2022-10-19T09:24:39.705Z,133.53846
2022-10-19T09:29:41.235Z,110.48649
2022-10-19T09:34:42.812Z,106.96296
2022-10-19T09:45:09.745Z,105.67979
2022-10-19T09:50:11.351Z,107.39523
2022-10-19T09:55:13.085Z,105.67979
2022-10-19T10:00:14.745Z,102.76289
2022-10-19T10:05:16.462Z,109.14745
2022-10-19T10:10:18.299Z,122.03468
2022-10-19T10:15:20.479Z,134.12346
2022-10-19T10:20:22.285Z,128.43114
2022-10-19T10:25:24.028Z,126.78932
2022-10-19T10:30:25.812Z,123.59184
2022-10-19T10:35:27.473Z,117.52113
2022-10-19T10:40:29.182Z,118.50425
2022-10-19T10:45:31.151Z,128.43114
2022-10-19T10:50:32.745Z,116.06704
2022-10-19T10:55:34.538Z,119
2022-10-19T11:00:36.330Z,147.30033
2022-10-19T11:05:38.056Z,130.66667
2022-10-19T11:10:39.911Z,116.54902
2022-10-19T11:15:41.602Z,137.10345
2022-10-19T11:20:43.361Z,149.33333
2022-10-19T11:25:45.025Z,130.66667
2022-10-19T11:30:49.874Z,132.95706
2022-10-19T11:35:52.313Z,128.98498
2022-10-19T11:46:01.551Z,107.82979
2022-10-19T11:51:16.897Z,111.3913
2022-10-19T11:56:25.230Z,107.82979
2022-10-19T12:01:36.726Z,98.77387
2022-10-19T12:06:38.527Z,95.72414
2022-10-19T12:11:40.345Z,93.15254
2022-10-19T12:16:42.016Z,94.98039
2022-10-19T12:21:43.606Z,115.58774
2022-10-19T12:26:45.433Z,167.18841
2022-10-19T12:31:47.144Z,173.85075
2022-10-19T12:36:48.785Z,138.93671
2022-10-19T12:41:50.469Z,127.8806
2022-10-19T12:46:53.851Z,154.9589
2022-10-19T12:51:57.241Z,148.65116
2022-10-19T12:56:58.916Z,150.71141
2022-10-19T13:02:00.678Z,160.90141
2022-10-19T13:07:02.309Z,157.14879
2022-10-19T13:12:04.195Z,141.4359
2022-10-19T13:17:06.186Z,165.58273
2022-10-19T13:22:08.061Z,146.63158
2022-10-19T13:27:09.797Z,127.33333
2022-10-19T13:32:11.609Z,120.5043
2022-10-19T13:37:13.327Z,123.59184
2022-10-19T13:42:14.940Z,107.82979
2022-10-19T13:47:16.690Z,92.07692
2022-10-19T13:52:18.339Z,85.93548
2022-10-19T13:57:20.013Z,83.68254
2022-10-19T14:02:21.858Z,82.42697
2022-10-19T14:07:23.708Z,84.31891
2022-10-19T14:12:25.531Z,84.63927
2022-10-19T14:17:27.427Z,86.92343
2022-10-19T14:22:29.016Z,93.87835
2022-10-19T14:27:30.671Z,114.16575
2022-10-19T14:32:32.468Z,140.80511
2022-10-19T14:37:34.424Z,145.30719
2022-10-19T14:42:36.681Z,125.17647
2022-10-19T14:47:38.702Z,122.03468
2022-10-19T14:52:40.375Z,119
2022-10-19T14:57:42.139Z,119
2022-10-19T15:02:43.991Z,119.49858
2022-10-19T15:07:45.598Z,123.06977
2022-10-19T15:12:47.226Z,124.11696
2022-10-19T15:17:49.101Z,131.80488
2022-10-19T15:22:50.695Z,150.71141
2022-10-19T15:27:52.640Z,138.93671
2022-10-19T15:32:54.817Z,136.5
2022-10-19T15:37:56.648Z,147.30033
2022-10-19T15:42:58.387Z,128.43114
2022-10-19T15:48:00.105Z,125.17647
2022-10-19T15:53:01.938Z,140.80511
2022-10-19T15:58:03.564Z,154.23891
2022-10-19T16:03:05.333Z,144.65147
2022-10-19T16:08:10.096Z,138.93671
2022-10-19T16:13:13.983Z,125.71091
2022-10-19T16:18:15.583Z,125.71091
2022-10-19T16:23:17.464Z,145.30719
2022-10-19T16:28:19.624Z,142.70968
2022-10-19T16:33:21.268Z,123.59184
2022-10-19T16:38:23.013Z,136.5
2022-10-19T16:43:24.839Z,126.24852
2022-10-19T16:48:26.823Z,128.43114
2022-10-19T16:53:28.499Z,131.23404
2022-10-19T16:58:30.130Z,147.30033
2022-10-19T17:03:31.843Z,152.10811
2022-10-19T17:08:36.823Z,163.21708
2022-10-19T17:13:39.044Z,163.21708
2022-10-19T17:18:40.777Z,179.1145
2022-10-19T17:23:42.499Z,172.14815
2022-10-19T17:28:44.446Z,154.9589
2022-10-19T17:33:46.036Z,208.37768
2022-10-19T17:38:47.675Z,195.42857
2022-10-19T17:43:49.387Z,197.49794
2022-10-19T17:48:51.180Z,224
2022-10-19T17:53:52.852Z,227.87097
2022-10-19T17:58:54.500Z,256.69036
2022-10-19T18:03:56.104Z,230.51163
2022-10-19T18:08:57.919Z,222.73303
2022-10-19T18:13:59.752Z,229.18519
2022-10-19T18:19:01.377Z,210.66667
2022-10-19T18:24:02.979Z,186.51969
2022-10-19T18:29:04.744Z,217.77778
2022-10-19T18:34:06.439Z,184.625
2022-10-19T18:39:08.177Z,172.14815
2022-10-19T18:44:09.793Z,155.68385
2022-10-19T18:49:11.388Z,136.5
2022-10-19T18:54:13.060Z,130.66667
2022-10-19T18:59:14.954Z,142.70968
2022-10-19T19:04:17.142Z,148.65116
2022-10-19T19:09:18.945Z,173.85075
2022-10-19T19:14:20.975Z,149.33333
2022-10-19T19:19:23.096Z,161.66784
2022-10-19T19:24:25.184Z,138.93671
2022-10-19T19:29:27.257Z,129.54217
2022-10-19T19:34:29.319Z,126.24852
2022-10-19T19:39:31.315Z,121.52161
2022-10-19T19:44:33.380Z,116.06704
2022-10-19T19:49:35.483Z,124.64516
2022-10-19T19:54:37.261Z,128.43114
2022-10-19T19:59:39.257Z,113.69697
2022-10-19T20:04:41.937Z,113.69697
2022-10-19T20:09:43.661Z,146.63158
2022-10-19T20:14:45.342Z,125.71091
2022-10-19T20:19:47.043Z,126.24852
2022-10-19T20:24:48.722Z,134.71207
2022-10-19T20:28:08.442Z,143.35275
2022-10-19T20:33:10.775Z,138.93671
2022-10-19T20:38:12.888Z,145.30719
2022-10-19T20:43:14.679Z,150.71141
2022-10-19T20:48:16.755Z,202.82353
2022-10-19T20:53:18.448Z,193.39271
2022-10-19T20:58:20.569Z,196.45902
2022-10-19T21:03:22.337Z,191.38956
2022-10-19T21:08:24.035Z,181.83784
2022-10-19T21:13:26.000Z,175.57895
2022-10-19T21:18:28.359Z,184.625
2022-10-19T21:23:30.086Z,174.71161
2022-10-19T21:28:32.019Z,192.3871
2022-10-19T21:33:34.010Z,176.45283
2022-10-19T21:38:36.042Z,175.57895
2022-10-19T21:43:38.105Z,169.64103
2022-10-19T21:48:40.183Z,196.45902
2022-10-19T21:53:42.295Z,209.51724
2022-10-19T21:58:44.292Z,184.625
2022-10-19T22:03:46.196Z,185.56863
2022-10-19T22:08:49.140Z,174.71161
2022-10-19T22:13:50.930Z,131.80488
2022-10-19T22:18:52.532Z,117.03371
2022-10-19T22:23:54.199Z,115.11111
2022-10-19T22:28:56.130Z,114.63712
2022-10-19T22:33:57.932Z,119.49858
2022-10-19T22:38:59.857Z,105.67979
2022-10-19T22:44:01.607Z,101.94872
2022-10-19T22:49:03.349Z,104
2022-10-19T22:54:05.057Z,112.76712
2022-10-19T22:59:06.722Z,107.82979
2022-10-19T23:04:08.375Z,110.93767
2022-10-19T23:09:10.300Z,100.34518
2022-10-19T23:14:12.397Z,127.8806
2022-10-19T23:19:14.583Z,111.3913
2022-10-19T23:24:16.264Z,126.78932
2022-10-19T23:29:17.870Z,110.48649
2022-10-19T23:34:19.946Z,125.17647
2022-10-19T23:39:21.643Z,146.63158
2022-10-19T23:44:23.258Z,107.82979
2022-10-19T23:49:26.001Z,87.25581
2022-10-19T23:54:27.622Z,99.94937
2022-10-19T23:59:29.474Z,94.61125
